createdAt,value
2022-11-19T00:02:02.528Z,3.40
2022-11-19T00:04:32.494Z,3.36
2022-11-19T00:06:59.379Z,3.35
2022-11-19T00:09:26.325Z,3.32
2022-11-19T00:12:17.386Z,3.31
2022-11-19T00:14:44.350Z,3.30
2022-11-19T00:17:11.017Z,3.29
2022-11-19T00:19:38.039Z,3.27
2022-11-19T00:22:05.117Z,3.23
2022-11-19T00:24:33.338Z,3.24
2022-11-19T00:27:00.166Z,3.22
2022-11-19T00:29:26.907Z,3.43
2022-11-19T00:31:53.747Z,3.21
2022-11-19T00:34:20.953Z,3.17
2022-11-19T00:36:48.538Z,3.14
2022-11-19T00:39:15.529Z,3.12
2022-11-19T00:41:42.288Z,3.09
2022-11-19T00:44:08.836Z,3.26
2022-11-19T00:46:36.146Z,3.06
2022-11-19T00:49:03.155Z,3.03
2022-11-19T00:51:40.865Z,3.06
2022-11-19T00:54:07.796Z,2.98
2022-11-19T00:56:35.016Z,2.95
2022-11-19T00:59:17.043Z,2.92
2022-11-19T01:01:44.454Z,2.92
2022-11-19T01:04:11.604Z,2.90
2022-11-19T01:06:38.923Z,2.86
2022-11-19T01:09:06.064Z,2.84
2022-11-19T01:11:37.932Z,2.84
2022-11-19T01:14:06.571Z,2.80
2022-11-19T01:17:01.796Z,2.80
2022-11-19T01:19:28.336Z,2.75
2022-11-19T01:21:54.965Z,2.73
2022-11-19T01:24:22.119Z,2.70
2022-11-19T01:26:49.004Z,2.68
2022-11-19T01:29:16.095Z,2.66
2022-11-19T01:31:43.075Z,2.64
2022-11-19T01:34:12.748Z,2.84
2022-11-19T01:36:39.504Z,2.63
2022-11-19T01:39:06.185Z,2.80
2022-11-19T01:41:33.548Z,2.59
2022-11-19T01:44:04.950Z,2.57
2022-11-19T01:46:37.814Z,2.56
2022-11-19T01:49:19.147Z,2.58
2022-11-19T01:51:55.672Z,2.51
2022-11-19T01:54:35.530Z,2.50
2022-11-19T01:57:05.685Z,2.46
2022-11-19T01:59:32.852Z,2.43
2022-11-19T02:02:00.213Z,2.40
2022-11-19T02:04:28.153Z,2.40
2022-11-19T02:06:55.372Z,2.38
2022-11-19T02:09:22.985Z,2.37
2022-11-19T02:12:13.339Z,2.44
2022-11-19T02:15:05.554Z,2.42
2022-11-19T02:18:24.726Z,2.42
2022-11-19T02:20:54.602Z,2.35
2022-11-19T02:23:46.958Z,2.37
2022-11-19T02:26:38.647Z,2.35
2022-11-19T02:29:44.378Z,2.32
2022-11-19T02:32:18.430Z,2.26
2022-11-19T02:35:02.225Z,2.26
2022-11-19T02:37:33.292Z,2.17
2022-11-19T02:40:13.435Z,2.19
2022-11-19T02:43:31.153Z,2.22
2022-11-19T02:46:05.455Z,2.15
2022-11-19T02:48:38.726Z,2.13
2022-11-19T02:51:08.582Z,2.09
2022-11-19T02:53:36.197Z,2.06
2022-11-19T02:56:20.474Z,2.10
2022-11-19T02:59:14.592Z,2.08
2022-11-19T03:02:05.066Z,2.03
2022-11-19T03:04:33.477Z,1.99
2022-11-19T03:07:05.293Z,1.99
2022-11-19T03:10:03.846Z,2.03
2022-11-19T03:12:30.366Z,2.14
2022-11-19T03:15:24.608Z,1.94
2022-11-19T03:18:14.913Z,1.95
2022-11-19T03:21:01.173Z,1.93
2022-11-19T03:23:34.947Z,1.87
2022-11-19T03:26:07.154Z,1.83
2022-11-19T03:28:37.606Z,1.78
2022-11-19T03:31:07.467Z,1.77
2022-11-19T03:33:44.610Z,1.75
2022-11-19T03:36:18.966Z,1.72
2022-11-19T03:38:55.583Z,1.71
2022-11-19T03:41:39.675Z,1.67
2022-11-19T03:44:30.858Z,1.66
2022-11-19T03:47:25.088Z,1.70
2022-11-19T03:50:00.247Z,1.64
2022-11-19T03:52:27.120Z,1.57
2022-11-19T03:54:55.517Z,1.75
2022-11-19T03:57:34.983Z,1.63
2022-11-19T04:00:02.914Z,1.52
2022-11-19T04:02:29.772Z,1.50
2022-11-19T04:04:57.179Z,1.48
2022-11-19T04:07:27.407Z,1.50
2022-11-19T04:12:46.644Z,1.45
2022-11-19T04:18:06.688Z,1.44
2022-11-19T04:20:33.673Z,1.40
2022-11-19T04:23:00.784Z,1.39
2022-11-19T04:25:28.535Z,1.37
2022-11-19T04:27:55.463Z,1.35
2022-11-19T04:30:24.340Z,1.32
2022-11-19T04:33:05.424Z,1.30
2022-11-19T04:35:32.508Z,1.29
2022-11-19T04:38:00.069Z,1.27
2022-11-19T04:40:27.371Z,1.24
2022-11-19T04:42:56.857Z,1.27
2022-11-19T04:45:23.545Z,1.22
2022-11-19T04:47:50.656Z,1.41
2022-11-19T04:50:18.228Z,1.24
2022-11-19T04:52:47.324Z,1.18
2022-11-19T04:55:15.173Z,1.17
2022-11-19T05:00:23.345Z,1.13
2022-11-19T05:02:50.033Z,1.11
2022-11-19T05:05:16.773Z,1.10
2022-11-19T05:07:43.536Z,1.09
2022-11-19T05:10:10.804Z,1.27
2022-11-19T05:12:37.857Z,1.10
2022-11-19T05:15:05.790Z,1.06
2022-11-19T05:17:32.420Z,1.05
2022-11-19T05:20:01.029Z,1.05
2022-11-19T05:22:28.392Z,1.05
2022-11-19T05:24:55.909Z,1.03
2022-11-19T05:31:21.289Z,1.10
2022-11-19T06:52:37.212Z,0.62
2022-11-19T08:06:51.293Z,2.37
2022-11-19T08:09:18.242Z,2.57
2022-11-19T08:11:45.124Z,2.82
2022-11-19T08:14:14.965Z,3.09
2022-11-19T08:17:00.103Z,3.37
2022-11-19T08:19:27.136Z,3.64
2022-11-19T08:21:53.649Z,3.86
2022-11-19T08:24:21.286Z,4.09
2022-11-19T08:26:48.877Z,4.29
2022-11-19T08:29:17.809Z,4.49
2022-11-19T08:31:47.249Z,4.70
2022-11-19T08:34:14.916Z,4.88
2022-11-19T08:39:23.377Z,5.23
2022-11-19T08:42:08.654Z,5.52
2022-11-19T08:44:35.477Z,5.60
2022-11-19T08:47:03.115Z,5.89
2022-11-19T08:49:33.761Z,5.94
2022-11-19T08:52:00.503Z,6.10
2022-11-19T08:54:47.888Z,6.39
2022-11-19T08:57:14.596Z,6.48
2022-11-19T11:30:19.569Z,12.18
2022-11-19T11:32:49.133Z,12.21
2022-11-19T11:35:39.954Z,12.36
2022-11-19T11:38:07.466Z,12.39
2022-11-19T11:47:18.296Z,12.75
2022-11-19T12:00:46.182Z,13.10
2022-11-19T12:06:15.684Z,13.16
2022-11-19T12:09:01.196Z,13.19
2022-11-19T12:15:13.266Z,13.35
2022-11-19T12:18:10.314Z,13.39
2022-11-19T12:20:57.979Z,13.40
2022-11-19T12:23:57.843Z,13.47
2022-11-19T12:26:33.723Z,13.58
2022-11-19T12:29:27.111Z,13.59
2022-11-19T12:32:19.939Z,13.73
2022-11-19T12:35:17.230Z,13.77
2022-11-19T12:38:20.194Z,13.88
2022-11-19T12:41:20.676Z,13.90
2022-11-19T12:44:31.876Z,13.94
2022-11-19T12:47:45.583Z,13.94
2022-11-19T12:50:55.623Z,14.00
2022-11-19T12:58:07.647Z,14.09
2022-11-19T13:00:41.125Z,14.10
2022-11-19T13:03:35.099Z,14.16
2022-11-19T13:06:16.740Z,14.24
2022-11-19T13:08:48.381Z,14.29
2022-11-19T13:11:21.759Z,14.35
2022-11-19T13:13:58.839Z,14.42
2022-11-19T13:16:29.763Z,14.44
2022-11-19T13:19:20.543Z,14.47
2022-11-19T13:22:12.323Z,14.45
2022-11-19T13:25:14.898Z,14.46
2022-11-19T13:27:43.587Z,14.28
2022-11-19T13:30:19.006Z,14.24
2022-11-19T13:32:59.255Z,14.13
2022-11-19T13:35:29.651Z,13.93
2022-11-19T13:38:22.504Z,13.90
2022-11-19T13:41:01.380Z,13.71
2022-11-19T13:43:49.837Z,13.55
2022-11-19T13:46:38.996Z,13.50
2022-11-19T13:49:16.384Z,13.40
2022-11-19T13:51:49.192Z,13.34
2022-11-19T13:54:31.313Z,13.34
2022-11-19T13:57:03.020Z,13.25
2022-11-19T13:59:39.633Z,13.24
2022-11-19T14:02:45.481Z,13.30
2022-11-19T21:14:17.801Z,1.79
2022-11-19T21:24:46.714Z,1.72
2022-11-19T21:27:13.314Z,1.70
2022-11-19T21:29:40.008Z,1.68
2022-11-19T21:32:06.767Z,1.68
2022-11-19T21:34:34.014Z,1.86
2022-11-19T21:37:06.582Z,1.69
2022-11-19T21:39:33.197Z,1.65
2022-11-19T21:41:59.794Z,1.64
2022-11-19T21:44:26.492Z,1.62
2022-11-19T21:46:53.139Z,1.60
2022-11-19T21:49:20.169Z,1.59
2022-11-19T21:51:47.367Z,1.57
2022-11-19T21:54:14.050Z,1.56
2022-11-19T21:56:40.671Z,1.55
2022-11-19T21:59:07.571Z,1.53
2022-11-19T22:01:34.347Z,1.52
2022-11-19T22:04:01.591Z,1.72
2022-11-19T22:06:28.486Z,1.54
2022-11-19T22:08:55.598Z,1.50
2022-11-19T22:11:32.145Z,1.49
2022-11-19T22:14:07.994Z,1.53
2022-11-19T22:16:39.779Z,1.51
2022-11-19T22:19:07.125Z,1.44
2022-11-19T22:21:36.415Z,1.46
2022-11-19T22:24:04.316Z,1.42
2022-11-19T22:26:31.274Z,1.39
2022-11-19T22:28:57.999Z,1.37
2022-11-19T22:31:26.683Z,1.55
2022-11-19T22:33:54.013Z,1.36
2022-11-19T22:36:22.113Z,1.33
2022-11-19T22:38:48.972Z,1.29
2022-11-19T22:41:18.272Z,1.29
2022-11-19T22:43:46.440Z,1.25
2022-11-19T22:46:14.595Z,1.24
2022-11-19T22:48:41.590Z,1.22
2022-11-19T22:51:13.648Z,1.22
2022-11-19T22:53:47.477Z,1.23
2022-11-19T22:56:17.728Z,1.20
2022-11-19T22:58:44.767Z,1.17
2022-11-19T23:01:43.544Z,1.26
2022-11-19T23:04:14.211Z,1.18
2022-11-19T23:06:41.025Z,1.13
2022-11-19T23:09:07.723Z,1.30
2022-11-19T23:11:53.407Z,1.31
2022-11-19T23:14:20.038Z,1.32
2022-11-19T23:16:46.678Z,1.33
2022-11-19T23:19:13.559Z,1.32
2022-11-19T23:21:40.339Z,1.33
2022-11-19T23:24:07.128Z,1.33
2022-11-19T23:26:34.197Z,1.35
2022-11-19T23:29:01.002Z,1.34
2022-11-19T23:31:31.052Z,1.34
2022-11-19T23:33:59.237Z,1.36
2022-11-19T23:36:30.426Z,1.35
2022-11-19T23:38:57.783Z,1.34
2022-11-19T23:41:24.539Z,1.35
2022-11-19T23:43:52.417Z,1.35
2022-11-19T23:46:20.213Z,1.33
2022-11-19T23:48:48.067Z,1.34
2022-11-19T23:51:15.746Z,1.33
2022-11-19T23:53:42.874Z,1.33
2022-11-19T23:56:10.229Z,1.33
2022-11-19T23:58:36.868Z,1.34
